createdAt,value
2018-11-26T00:00:47.513Z,71.85
2018-11-26T00:03:12.973Z,71.86
2018-11-26T00:05:38.822Z,71.54
2018-11-26T00:11:07.379Z,71.71
2018-11-26T00:13:32.466Z,72.90
2018-11-26T00:15:57.566Z,71.87
2018-11-26T00:18:22.639Z,71.32
2018-11-26T00:20:47.746Z,71.33
2018-11-26T00:23:13.192Z,71.06
2018-11-26T00:25:38.292Z,70.73
2018-11-26T00:28:03.430Z,71.05
2018-11-26T00:30:28.713Z,71.17
2018-11-26T00:32:53.818Z,71.04
2018-11-26T00:35:18.924Z,71.08
2018-11-26T00:37:43.986Z,70.91
2018-11-26T00:40:10.773Z,70.56
2018-11-26T00:45:13.649Z,70.37
2018-11-26T00:50:16.323Z,70.44
2018-11-26T00:52:42.095Z,70.40
2018-11-26T00:55:08.497Z,70.91
2018-11-26T00:57:33.570Z,70.71
2018-11-26T00:59:58.769Z,70.46
2018-11-26T01:02:23.876Z,70.45
2018-11-26T01:04:48.961Z,71.16
2018-11-26T01:07:14.072Z,70.68
2018-11-26T01:09:39.169Z,70.58
2018-11-26T01:12:04.420Z,70.54
2018-11-26T01:14:29.586Z,70.37
2018-11-26T01:16:54.938Z,70.46
2018-11-26T01:19:19.956Z,70.93
2018-11-26T01:21:45.126Z,70.46
2018-11-26T01:24:10.188Z,70.19
2018-11-26T01:26:35.244Z,71.00
2018-11-26T01:29:00.326Z,70.39
2018-11-26T01:31:25.418Z,70.06
2018-11-26T01:33:50.580Z,70.24
2018-11-26T01:36:15.636Z,70.04
2018-11-26T01:38:40.742Z,70.43
2018-11-26T01:41:05.876Z,69.95
2018-11-26T01:43:30.941Z,69.91
2018-11-26T01:45:56.057Z,69.46
2018-11-26T01:48:21.131Z,69.51
2018-11-26T01:50:46.208Z,70.09
2018-11-26T01:53:11.331Z,69.94
2018-11-26T01:55:36.542Z,70.69
2018-11-26T01:58:01.714Z,70.69
2018-11-26T02:00:27.850Z,70.01
2018-11-26T02:02:52.922Z,69.82
2018-11-26T02:05:18.080Z,70.03
2018-11-26T02:07:43.173Z,70.48
2018-11-26T02:10:10.473Z,70.72
2018-11-26T02:12:35.517Z,70.40
2018-11-26T02:15:00.610Z,70.19
2018-11-26T02:17:25.693Z,69.55
2018-11-26T02:19:50.770Z,69.74
2018-11-26T02:22:15.825Z,69.61
2018-11-26T02:24:40.927Z,69.77
2018-11-26T02:27:06.409Z,69.36
2018-11-26T02:29:31.458Z,69.28
2018-11-26T02:31:56.517Z,69.63
2018-11-26T02:34:21.565Z,69.71
2018-11-26T02:36:46.895Z,70.11
2018-11-26T02:39:11.929Z,69.65
2018-11-26T02:41:36.958Z,69.72
2018-11-26T02:44:02.028Z,69.35
2018-11-26T02:46:27.100Z,69.02
2018-11-26T02:48:52.206Z,69.28
2018-11-26T02:51:17.200Z,69.62
2018-11-26T02:53:42.521Z,69.77
2018-11-26T02:56:07.553Z,69.73
2018-11-26T02:58:32.597Z,70.17
2018-11-26T03:00:57.707Z,69.79
2018-11-26T03:03:22.760Z,69.24
2018-11-26T03:05:48.225Z,69.29
2018-11-26T03:08:13.335Z,69.73
2018-11-26T03:10:38.380Z,69.32
2018-11-26T03:13:15.313Z,68.85
2018-11-26T03:15:40.387Z,70.00
2018-11-26T03:18:05.477Z,69.77
2018-11-26T03:20:30.521Z,70.10
2018-11-26T03:22:55.620Z,69.26
2018-11-26T03:25:39.691Z,69.16
2018-11-26T03:28:04.796Z,69.30
2018-11-26T03:30:30.188Z,68.41
2018-11-26T03:32:55.302Z,68.83
2018-11-26T03:35:20.395Z,68.54
2018-11-26T03:37:45.536Z,68.90
2018-11-26T03:40:11.925Z,68.32
2018-11-26T03:42:36.961Z,68.65
2018-11-26T03:45:02.046Z,68.27
2018-11-26T03:47:27.099Z,68.32
2018-11-26T03:49:52.177Z,68.08
2018-11-26T03:52:17.215Z,68.84
2018-11-26T03:54:42.271Z,68.56
2018-11-26T03:57:07.468Z,68.01
2018-11-26T03:59:32.553Z,68.54
2018-11-26T04:01:57.748Z,68.77
2018-11-26T04:04:22.801Z,68.46
2018-11-26T04:06:47.868Z,68.82
2018-11-26T04:09:12.967Z,69.48
2018-11-26T04:11:38.407Z,69.53
2018-11-26T04:14:03.593Z,69.20
2018-11-26T04:16:28.681Z,68.78
2018-11-26T04:18:53.735Z,68.82
2018-11-26T04:21:18.855Z,68.49
2018-11-26T04:23:43.932Z,68.21
2018-11-26T04:26:09.031Z,68.48
2018-11-26T04:28:34.074Z,68.51
2018-11-26T04:30:59.113Z,68.18
2018-11-26T04:33:24.281Z,68.25
2018-11-26T04:35:49.392Z,68.25
2018-11-26T04:38:14.449Z,67.93
2018-11-26T04:40:39.505Z,68.03
2018-11-26T04:43:04.583Z,68.11
2018-11-26T04:45:29.691Z,68.18
2018-11-26T04:47:54.746Z,67.85
2018-11-26T04:52:56.921Z,68.19
2018-11-26T04:55:22.091Z,68.00
2018-11-26T04:57:47.128Z,68.34
2018-11-26T05:00:13.619Z,68.21
2018-11-26T05:02:38.727Z,68.21
2018-11-26T05:05:03.822Z,68.57
2018-11-26T05:07:28.924Z,68.34
2018-11-26T05:09:53.965Z,68.42
2018-11-26T05:12:19.053Z,68.96
2018-11-26T05:14:44.091Z,68.76
2018-11-26T05:17:09.155Z,69.66
2018-11-26T05:19:34.288Z,69.39
2018-11-26T05:21:59.390Z,68.83
2018-11-26T05:24:24.505Z,68.78
2018-11-26T05:26:49.656Z,68.87
2018-11-26T05:29:14.689Z,69.22
2018-11-26T05:31:39.773Z,69.10
2018-11-26T05:34:04.859Z,69.51
2018-11-26T05:36:30.113Z,69.13
2018-11-26T05:38:55.209Z,69.14
2018-11-26T05:41:20.321Z,69.52
2018-11-26T05:43:45.369Z,69.12
2018-11-26T05:46:10.467Z,69.47
2018-11-26T05:48:35.530Z,69.91
2018-11-26T05:51:00.580Z,69.53
2018-11-26T05:53:25.680Z,69.94
2018-11-26T05:55:50.763Z,69.71
2018-11-26T05:58:15.837Z,69.51
2018-11-26T06:03:19.918Z,69.39
2018-11-26T06:05:45.028Z,69.66
2018-11-26T06:08:10.136Z,69.41
2018-11-26T06:10:35.258Z,69.32
2018-11-26T06:13:00.348Z,69.44
2018-11-26T06:15:25.405Z,69.21
2018-11-26T06:17:57.753Z,69.42
2018-11-26T06:20:22.828Z,69.57
2018-11-26T06:22:48.447Z,69.78
2018-11-26T06:25:36.367Z,69.65
2018-11-26T06:28:01.441Z,69.67
2018-11-26T06:30:26.612Z,69.36
2018-11-26T06:32:51.714Z,69.80
2018-11-26T06:35:36.441Z,69.98
2018-11-26T06:38:01.535Z,69.94
2018-11-26T06:40:26.656Z,70.15
2018-11-26T06:42:51.774Z,70.94
2018-11-26T06:45:21.224Z,70.14
2018-11-26T06:47:46.310Z,70.02
2018-11-26T06:50:15.323Z,70.29
2018-11-26T06:52:40.410Z,70.27
2018-11-26T06:55:06.022Z,70.39
2018-11-26T06:57:31.112Z,71.23
2018-11-26T06:59:56.416Z,71.03
2018-11-26T07:02:21.512Z,70.44
2018-11-26T07:04:46.550Z,69.98
2018-11-26T07:07:11.678Z,70.22
2018-11-26T07:09:36.718Z,70.77
2018-11-26T07:12:01.838Z,70.66
2018-11-26T07:14:26.842Z,71.02
2018-11-26T07:16:51.872Z,70.50
2018-11-26T07:19:16.930Z,70.11
2018-11-26T07:21:41.984Z,70.52
2018-11-26T07:24:07.173Z,70.12
2018-11-26T07:26:32.239Z,70.20
2018-11-26T07:28:57.301Z,70.63
2018-11-26T07:31:22.363Z,70.26
2018-11-26T07:33:47.388Z,70.16
2018-11-26T07:36:12.477Z,70.29
2018-11-26T07:38:37.536Z,70.21
2018-11-26T07:41:02.593Z,70.59
2018-11-26T07:43:27.637Z,71.69
2018-11-26T07:45:52.706Z,70.88
2018-11-26T07:48:17.727Z,70.79
2018-11-26T07:50:42.807Z,70.41
2018-11-26T07:53:27.732Z,71.10
2018-11-26T07:55:52.790Z,70.88
2018-11-26T07:58:17.887Z,70.25
2018-11-26T08:00:43.110Z,70.51
2018-11-26T08:03:19.838Z,71.27
2018-11-26T08:05:44.908Z,70.37
2018-11-26T08:08:09.984Z,70.65
2018-11-26T08:10:35.201Z,70.36
2018-11-26T08:13:00.312Z,70.76
2018-11-26T08:15:26.381Z,70.76
2018-11-26T08:20:27.756Z,69.77
2018-11-26T08:22:52.828Z,69.89
2018-11-26T08:25:19.425Z,69.45
2018-11-26T08:27:45.179Z,70.05
2018-11-26T08:30:30.612Z,70.45
2018-11-26T08:33:04.635Z,71.37
2018-11-26T08:35:30.066Z,71.30
2018-11-26T08:38:13.855Z,70.77
2018-11-26T08:40:57.617Z,71.47
2018-11-26T08:43:41.506Z,70.76
2018-11-26T08:49:01.698Z,71.36
2018-11-26T08:51:26.762Z,71.68
2018-11-26T08:53:51.816Z,70.99
2018-11-26T08:56:16.896Z,70.89
2018-11-26T08:58:41.994Z,70.53
2018-11-26T09:01:17.282Z,70.90
2018-11-26T09:06:18.644Z,70.40
2018-11-26T09:08:43.727Z,71.51
2018-11-26T09:11:10.082Z,70.42
2018-11-26T09:13:35.167Z,70.05
2018-11-26T09:16:00.188Z,71.43
2018-11-26T09:18:25.248Z,70.74
2018-11-26T09:20:50.311Z,70.13
2018-11-26T09:23:15.367Z,70.63
2018-11-26T09:25:40.402Z,71.76
2018-11-26T09:28:05.537Z,70.87
2018-11-26T09:30:30.614Z,71.04
2018-11-26T09:32:55.632Z,71.72
2018-11-26T09:35:20.700Z,71.60
2018-11-26T09:37:45.769Z,71.40
2018-11-26T09:40:12.753Z,71.35
2018-11-26T09:42:37.785Z,71.23
2018-11-26T09:45:02.871Z,71.16
2018-11-26T09:47:27.914Z,70.78
2018-11-26T09:49:52.977Z,70.53
2018-11-26T09:52:18.081Z,70.29
2018-11-26T09:54:43.163Z,70.75
2018-11-26T09:57:08.227Z,70.95
2018-11-26T09:59:33.469Z,70.54
2018-11-26T10:01:58.528Z,70.26
2018-11-26T10:04:23.597Z,71.55
2018-11-26T10:09:27.778Z,71.80
2018-11-26T10:11:52.908Z,71.83
2018-11-26T10:14:17.996Z,71.28
2018-11-26T10:16:43.133Z,70.36
2018-11-26T10:19:08.192Z,71.23
2018-11-26T10:21:33.426Z,70.54
2018-11-26T10:26:34.993Z,71.58
2018-11-26T10:29:00.047Z,71.04
2018-11-26T10:31:25.130Z,71.20
2018-11-26T10:33:50.232Z,70.93
2018-11-26T10:36:15.312Z,70.17
2018-11-26T10:38:40.390Z,70.16
2018-11-26T10:41:05.474Z,70.41
2018-11-26T10:43:30.785Z,70.58
2018-11-26T10:45:55.828Z,70.53
2018-11-26T10:48:20.923Z,70.93
2018-11-26T10:50:46.060Z,69.81
2018-11-26T10:53:11.122Z,70.11
2018-11-26T10:55:37.097Z,71.26
2018-11-26T10:58:02.257Z,70.68
2018-11-26T11:00:46.109Z,69.83
2018-11-26T11:03:11.394Z,70.94
2018-11-26T11:05:37.261Z,70.85
2018-11-26T11:08:02.378Z,70.65
2018-11-26T11:10:28.639Z,72.04
2018-11-26T11:12:53.853Z,72.21
2018-11-26T11:15:18.914Z,72.50
2018-11-26T11:17:43.968Z,72.11
2018-11-26T11:20:29.113Z,71.23
2018-11-26T11:22:54.196Z,70.41
2018-11-26T11:25:40.255Z,70.29
2018-11-26T11:28:05.743Z,71.20
2018-11-26T11:30:31.231Z,70.56
2018-11-26T11:32:56.309Z,70.42
2018-11-26T11:35:21.550Z,69.99
2018-11-26T11:37:47.622Z,69.59
2018-11-26T11:40:32.193Z,69.81
2018-11-26T11:42:57.784Z,69.78
2018-11-26T11:45:23.460Z,69.70
2018-11-26T11:47:48.536Z,69.64
2018-11-26T11:50:14.878Z,69.50
2018-11-26T11:52:39.998Z,69.30
2018-11-26T11:55:05.252Z,70.17
2018-11-26T11:57:30.369Z,69.05
2018-11-26T11:59:55.414Z,68.43
2018-11-26T12:02:20.633Z,68.67
2018-11-26T12:04:45.712Z,69.29
2018-11-26T12:07:10.879Z,68.58
2018-11-26T12:09:35.997Z,68.81
2018-11-26T12:14:38.007Z,68.35
2018-11-26T12:17:03.096Z,69.00
2018-11-26T12:19:28.203Z,68.70
2018-11-26T12:21:53.284Z,69.30
2018-11-26T12:24:18.360Z,69.20
2018-11-26T12:26:43.550Z,68.90
2018-11-26T12:29:08.618Z,69.71
2018-11-26T12:31:33.694Z,69.44
2018-11-26T12:33:58.794Z,68.83
2018-11-26T12:36:23.901Z,69.11
2018-11-26T12:38:48.954Z,68.63
2018-11-26T12:41:14.046Z,68.00
2018-11-26T12:43:39.151Z,67.42
2018-11-26T12:46:04.338Z,67.81
2018-11-26T12:48:29.468Z,67.63
2018-11-26T12:50:54.511Z,67.54
2018-11-26T12:53:19.615Z,67.49
2018-11-26T12:55:44.708Z,67.65
2018-11-26T12:58:09.809Z,67.25
2018-11-26T13:00:34.971Z,67.40
2018-11-26T13:03:01.378Z,67.29
2018-11-26T13:05:26.503Z,67.34
2018-11-26T13:07:51.646Z,67.59
2018-11-26T13:10:21.245Z,67.38
2018-11-26T13:15:29.905Z,67.13
2018-11-26T13:17:55.010Z,67.29
2018-11-26T13:20:39.133Z,67.21
2018-11-26T13:23:04.216Z,67.14
2018-11-26T13:25:42.179Z,67.49
2018-11-26T13:28:06.598Z,67.10
2018-11-26T13:30:35.883Z,67.64
2018-11-26T13:33:20.273Z,67.41
2018-11-26T13:35:46.336Z,66.96
2018-11-26T13:38:11.511Z,67.31
2018-11-26T13:40:36.707Z,67.40
2018-11-26T13:43:01.827Z,67.24
2018-11-26T13:45:46.482Z,67.38
2018-11-26T13:48:12.632Z,67.73
2018-11-26T13:50:39.440Z,67.36
2018-11-26T13:53:04.547Z,67.09
2018-11-26T13:55:29.618Z,67.56
2018-11-26T13:57:54.839Z,67.38
2018-11-26T14:00:19.878Z,66.83
2018-11-26T14:02:44.985Z,66.81
2018-11-26T14:05:29.149Z,66.82
2018-11-26T14:07:54.239Z,67.24
2018-11-26T14:10:38.373Z,67.45
2018-11-26T14:13:05.024Z,67.31
2018-11-26T14:15:30.203Z,67.02
2018-11-26T14:17:55.313Z,66.80
2018-11-26T14:20:20.396Z,66.90
2018-11-26T14:22:45.479Z,67.07
2018-11-26T14:25:19.881Z,67.35
2018-11-26T14:27:45.481Z,67.15
2018-11-26T14:30:30.172Z,67.04
2018-11-26T14:32:55.660Z,67.12
2018-11-26T14:35:20.947Z,67.47
2018-11-26T14:37:46.592Z,67.35
2018-11-26T14:40:49.708Z,67.36
2018-11-26T14:43:14.804Z,67.87
2018-11-26T14:45:39.902Z,67.74
2018-11-26T14:48:05.626Z,67.22
2018-11-26T14:50:30.759Z,67.04
2018-11-26T14:52:55.875Z,67.22
2018-11-26T14:55:24.885Z,67.00
2018-11-26T14:57:49.978Z,66.97
2018-11-26T15:00:34.609Z,67.20
2018-11-26T15:02:59.737Z,67.07
2018-11-26T15:05:24.766Z,67.16
2018-11-26T15:07:49.845Z,67.29
2018-11-26T15:10:33.986Z,67.18
2018-11-26T15:12:59.060Z,67.24
2018-11-26T15:15:27.897Z,67.18
2018-11-26T15:17:52.989Z,67.17
2018-11-26T15:20:37.113Z,66.86
2018-11-26T15:23:02.373Z,66.92
2018-11-26T15:25:28.611Z,66.84
2018-11-26T15:27:54.828Z,67.04
2018-11-26T15:30:21.046Z,67.22
2018-11-26T15:33:05.151Z,67.12
2018-11-26T15:35:30.238Z,67.15
2018-11-26T15:37:55.310Z,67.09
2018-11-26T15:40:21.450Z,67.54
2018-11-26T15:42:46.536Z,67.03
2018-11-26T15:45:30.683Z,67.13
2018-11-26T15:48:15.105Z,67.17
2018-11-26T15:50:40.227Z,67.47
2018-11-26T15:53:05.301Z,67.35
2018-11-26T15:55:30.359Z,67.09
2018-11-26T15:57:55.475Z,67.04
2018-11-26T16:00:21.639Z,67.22
2018-11-26T16:02:46.839Z,67.17
2018-11-26T16:05:13.222Z,67.42
2018-11-26T16:07:38.326Z,67.41
2018-11-26T16:10:16.391Z,67.15
2018-11-26T16:12:41.824Z,67.40
2018-11-26T16:15:09.552Z,67.69
2018-11-26T16:17:34.639Z,67.36
2018-11-26T16:19:59.734Z,67.66
2018-11-26T16:22:24.823Z,67.63
2018-11-26T16:24:49.875Z,67.79
2018-11-26T16:27:14.985Z,67.80
2018-11-26T16:29:40.039Z,67.44
2018-11-26T16:32:05.151Z,66.97
2018-11-26T16:34:41.979Z,67.33
2018-11-26T16:37:07.507Z,67.25
2018-11-26T16:39:32.586Z,67.12
2018-11-26T16:41:57.711Z,67.25
2018-11-26T16:44:22.900Z,67.17
2018-11-26T16:46:47.992Z,66.77
2018-11-26T16:49:13.087Z,66.69
2018-11-26T16:51:38.206Z,66.91
2018-11-26T16:54:03.295Z,66.94
2018-11-26T16:56:28.345Z,66.77
2018-11-26T16:58:53.448Z,66.54
2018-11-26T17:01:18.567Z,66.75
2018-11-26T17:03:43.658Z,67.15
2018-11-26T17:08:46.267Z,66.98
2018-11-26T17:11:11.710Z,67.20
2018-11-26T17:13:36.822Z,67.15
2018-11-26T17:16:01.883Z,67.07
2018-11-26T17:18:27.010Z,67.20
2018-11-26T17:20:52.092Z,66.81
2018-11-26T17:23:17.225Z,66.90
2018-11-26T17:25:42.326Z,67.04
2018-11-26T17:30:45.307Z,67.19
2018-11-26T17:33:11.955Z,67.11
2018-11-26T17:35:37.042Z,66.88
2018-11-26T17:38:02.145Z,67.00
2018-11-26T17:40:27.632Z,67.67
2018-11-26T17:42:53.038Z,67.15
2018-11-26T17:45:18.733Z,67.41
2018-11-26T17:48:03.471Z,67.33
2018-11-26T17:50:39.073Z,67.36
2018-11-26T17:53:04.185Z,67.10
2018-11-26T17:55:29.291Z,67.22
2018-11-26T17:57:54.429Z,67.68
2018-11-26T18:00:48.169Z,67.93
2018-11-26T18:03:13.301Z,67.86
2018-11-26T18:05:38.438Z,67.93
2018-11-26T18:08:05.479Z,68.52
2018-11-26T18:10:30.598Z,67.92
2018-11-26T18:12:55.717Z,67.73
2018-11-26T18:15:20.896Z,67.70
2018-11-26T18:17:46.810Z,67.18
2018-11-26T18:20:22.069Z,67.85
2018-11-26T18:22:48.367Z,67.67
2018-11-26T18:25:13.573Z,67.53
2018-11-26T18:27:39.105Z,67.31
2018-11-26T18:30:05.120Z,66.45
2018-11-26T18:32:30.262Z,66.63
2018-11-26T18:34:55.354Z,66.84
2018-11-26T18:37:20.518Z,66.59
2018-11-26T18:39:45.620Z,66.81
2018-11-26T18:42:10.748Z,66.65
2018-11-26T18:44:54.815Z,66.65
2018-11-26T18:47:19.942Z,66.86
2018-11-26T18:49:45.071Z,66.69
2018-11-26T18:52:10.186Z,66.46
2018-11-26T18:54:54.275Z,66.83
2018-11-26T18:57:19.438Z,66.11
2018-11-26T18:59:44.574Z,66.52
2018-11-26T19:02:09.697Z,66.47
2018-11-26T19:04:34.848Z,67.66
2018-11-26T19:06:59.993Z,67.01
2018-11-26T19:09:25.086Z,66.22
2018-11-26T19:11:50.204Z,66.40
2018-11-26T19:14:17.665Z,66.16
2018-11-26T19:16:45.013Z,66.64
2018-11-26T19:19:10.144Z,66.14
2018-11-26T19:21:35.285Z,66.38
2018-11-26T19:24:00.405Z,66.27
2018-11-26T19:26:25.855Z,66.15
2018-11-26T19:28:50.637Z,66.27
2018-11-26T19:31:15.755Z,66.30
2018-11-26T19:33:40.878Z,66.01
2018-11-26T19:36:06.405Z,66.02
2018-11-26T19:38:31.493Z,66.28
2018-11-26T19:40:56.618Z,66.12
2018-11-26T19:43:21.806Z,66.07
2018-11-26T19:45:46.942Z,65.72
2018-11-26T19:48:12.103Z,65.96
2018-11-26T19:50:37.332Z,65.88
2018-11-26T19:53:02.449Z,66.14
2018-11-26T19:55:28.035Z,66.45
2018-11-26T19:57:53.656Z,66.10
2018-11-26T20:00:37.905Z,66.11
2018-11-26T20:03:23.879Z,66.07
2018-11-26T20:06:26.974Z,66.37
2018-11-26T20:09:11.126Z,66.00
2018-11-26T20:14:21.331Z,66.33
2018-11-26T20:16:59.791Z,66.30
2018-11-26T20:19:24.890Z,66.36
2018-11-26T20:21:50.050Z,66.14
2018-11-26T20:24:15.157Z,66.08
2018-11-26T20:26:40.283Z,66.09
2018-11-26T20:29:05.455Z,66.17
2018-11-26T20:31:30.555Z,65.99
2018-11-26T20:33:56.251Z,65.97
2018-11-26T20:36:21.460Z,66.09
2018-11-26T20:38:46.547Z,66.22
2018-11-26T20:41:12.627Z,66.37
2018-11-26T20:43:56.709Z,66.58
2018-11-26T20:46:21.859Z,66.77
2018-11-26T20:48:46.983Z,66.36
2018-11-26T20:51:12.110Z,66.28
2018-11-26T20:53:37.229Z,66.53
2018-11-26T20:56:03.286Z,66.48
2018-11-26T20:58:28.379Z,66.62
2018-11-26T21:00:53.514Z,66.35
2018-11-26T21:03:19.387Z,66.35
2018-11-26T21:05:44.561Z,66.24
2018-11-26T21:08:09.691Z,66.39
2018-11-26T21:10:34.857Z,66.73
2018-11-26T21:12:59.952Z,66.59
2018-11-26T21:15:25.074Z,66.33
2018-11-26T21:17:51.366Z,66.52
2018-11-26T21:20:36.275Z,66.35
2018-11-26T21:23:01.387Z,66.66
2018-11-26T21:25:26.509Z,66.49
2018-11-26T21:27:51.601Z,66.35
2018-11-26T21:30:35.769Z,66.54
2018-11-26T21:33:00.968Z,66.62
2018-11-26T21:35:26.116Z,66.32
2018-11-26T21:37:52.287Z,66.46
2018-11-26T21:40:20.409Z,66.28
2018-11-26T21:42:43.879Z,66.51
2018-11-26T21:45:19.318Z,66.45
2018-11-26T21:47:44.392Z,66.46
2018-11-26T21:50:11.334Z,66.44
2018-11-26T21:52:36.448Z,66.22
2018-11-26T21:55:01.520Z,66.19
2018-11-26T21:57:26.583Z,66.63
2018-11-26T21:59:51.701Z,66.35
2018-11-26T22:02:16.918Z,66.49
2018-11-26T22:04:42.027Z,66.58
2018-11-26T22:07:07.436Z,66.43
2018-11-26T22:09:32.493Z,66.53
2018-11-26T22:12:10.368Z,66.53
2018-11-26T22:14:35.441Z,66.38
2018-11-26T22:17:00.524Z,66.83
2018-11-26T22:19:25.570Z,66.96
2018-11-26T22:21:50.650Z,66.60
2018-11-26T22:24:15.732Z,67.15
2018-11-26T22:26:40.798Z,66.91
2018-11-26T22:29:06.112Z,67.04
2018-11-26T22:31:31.180Z,67.05
2018-11-26T22:33:56.268Z,67.12
2018-11-26T22:36:21.375Z,67.08
2018-11-26T22:38:46.490Z,67.01
2018-11-26T22:41:11.597Z,66.83
2018-11-26T22:43:36.690Z,67.12
2018-11-26T22:46:02.204Z,67.12
2018-11-26T22:48:27.288Z,67.05
2018-11-26T22:50:52.355Z,67.23
2018-11-26T22:53:17.458Z,67.07
2018-11-26T22:55:42.613Z,67.49
2018-11-26T22:58:09.291Z,67.24
2018-11-26T23:00:54.407Z,67.07
2018-11-26T23:03:20.686Z,67.01
2018-11-26T23:05:45.816Z,66.80
2018-11-26T23:08:11.049Z,66.91
2018-11-26T23:10:36.167Z,66.89
2018-11-26T23:13:01.278Z,67.02
2018-11-26T23:15:26.359Z,66.95
2018-11-26T23:17:51.473Z,66.95
2018-11-26T23:20:35.594Z,66.83
2018-11-26T23:23:00.646Z,66.97
2018-11-26T23:25:25.731Z,67.05
2018-11-26T23:27:50.828Z,67.25
2018-11-26T23:30:34.956Z,67.55
2018-11-26T23:33:03.902Z,67.63
2018-11-26T23:35:29.060Z,67.65
2018-11-26T23:37:54.104Z,67.84
2018-11-26T23:40:19.233Z,67.89
2018-11-26T23:42:44.310Z,67.66
2018-11-26T23:45:13.645Z,67.98
2018-11-26T23:47:38.727Z,67.88
2018-11-26T23:50:03.829Z,67.79
2018-11-26T23:52:28.963Z,67.91
2018-11-26T23:54:54.046Z,67.90
2018-11-26T23:57:19.141Z,68.20
2018-11-26T23:59:44.220Z,67.97
